Time;durP1;ratioP1;P1;durP2;ratioP2;P2;SDS_P1;SDS_P2;PMS_P1;PMS_P2;Temp;Humidity;BMP_temperature;BMP_pressure;BME280_temperature;BME280_humidity;BME280_pressure;Samples;Min_cycle;Max_cycle;Signal;HPM_P1;HPM_P2
2022/01/15 00:00:28;;;;;;;13.85;0.90;;;5.90;99.90;;;;;;6278644;22;20019;-80
2022/01/15 00:02:55;;;;;;;10.02;1.10;;;5.90;99.90;;;;;;6251157;22;20024;-80
2022/01/15 00:05:22;;;;;;;5.43;1.40;;;5.90;99.90;;;;;;6251288;22;20114;-80
2022/01/15 00:07:48;;;;;;;18.00;2.45;;;5.90;99.90;;;;;;6251288;22;20022;-81
2022/01/15 00:10:20;;;;;;;5.82;1.13;;;5.90;99.90;;;;;;6251252;22;20055;-81
2022/01/15 00:12:46;;;;;;;5.75;0.93;;;5.90;99.90;;;;;;6278514;22;20016;-81
2022/01/15 00:15:23;;;;;;;8.63;1.10;;;5.90;99.90;;;;;;6251082;22;20346;-81
2022/01/15 00:17:55;;;;;;;2.90;0.60;;;5.90;99.90;;;;;;6278486;22;20023;-81
2022/01/15 00:20:23;;;;;;;4.18;1.13;;;5.90;99.90;;;;;;6278628;22;20037;-81
2022/01/15 00:22:50;;;;;;;5.85;0.80;;;5.90;99.90;;;;;;6251115;22;20024;-81
2022/01/15 00:25:17;;;;;;;6.30;0.90;;;5.90;99.90;;;;;;6278412;22;20014;-81
2022/01/15 00:27:43;;;;;;;3.83;0.50;;;5.80;99.90;;;;;;6278423;22;20026;-81
2022/01/15 00:30:10;;;;;;;4.38;0.77;;;5.80;99.90;;;;;;6250994;22;20462;-81
2022/01/15 00:32:37;;;;;;;6.70;0.70;;;5.80;99.90;;;;;;6250927;22;20086;-81
2022/01/15 00:35:04;;;;;;;3.80;0.60;;;5.80;99.90;;;;;;6278372;22;20019;-81
2022/01/15 00:37:31;;;;;;;6.80;0.55;;;5.80;99.90;;;;;;6278270;22;20053;-81
2022/01/15 00:40:03;;;;;;;4.25;0.55;;;5.80;99.90;;;;;;6277770;22;20439;-81
2022/01/15 00:42:30;;;;;;;2.20;0.80;;;5.80;99.90;;;;;;6278078;22;20062;-81
2022/01/15 00:44:57;;;;;;;1.73;0.70;;;5.80;99.90;;;;;;6250829;22;20022;-81
2022/01/15 00:47:25;;;;;;;6.68;0.77;;;5.80;99.90;;;;;;6250784;22;20016;-81
2022/01/15 00:49:52;;;;;;;1.50;0.50;;;5.80;99.90;;;;;;6250902;22;20027;-82
2022/01/15 00:52:17;;;;;;;2.10;0.50;;;5.80;99.90;;;;;;6250774;22;20022;-82
2022/01/15 00:54:43;;;;;;;3.88;0.60;;;5.80;99.90;;;;;;6250691;22;20020;-82
2022/01/15 00:57:09;;;;;;;7.88;1.20;;;5.80;99.90;;;;;;6245333;23;20023;-82
2022/01/15 00:59:34;;;;;;;7.22;0.70;;;5.80;99.90;;;;;;6247816;22;20201;-81
2022/01/15 01:02:00;;;;;;;3.22;0.40;;;5.80;99.90;;;;;;6245570;22;20039;-81
2022/01/15 01:04:26;;;;;;;9.93;1.20;;;5.80;99.90;;;;;;6245561;22;20467;-81
2022/01/15 01:06:51;;;;;;;6.00;0.80;;;5.80;99.90;;;;;;6247373;22;20348;-81
2022/01/15 01:09:17;;;;;;;3.75;0.50;;;5.80;99.90;;;;;;6247062;22;20110;-81
2022/01/15 01:11:47;;;;;;;2.88;0.40;;;5.80;99.90;;;;;;6245530;23;20020;-81
2022/01/15 01:25:09;;;;;;;0.98;0.25;;;5.70;99.90;;;;;;6245433;23;20047;-81
2022/01/15 01:27:46;;;;;;;2.47;0.20;;;5.70;99.90;;;;;;6246869;22;20452;-81
2022/01/15 01:30:29;;;;;;;2.92;0.30;;;5.70;99.90;;;;;;6245394;22;20446;-81
2022/01/15 01:33:03;;;;;;;4.47;0.30;;;5.70;99.90;;;;;;6245335;22;20059;-81
2022/01/15 01:35:42;;;;;;;1.90;0.25;;;5.60;99.90;;;;;;6245362;23;20087;-81
2022/01/15 01:38:14;;;;;;;5.68;0.30;;;5.50;99.90;;;;;;6245219;22;20020;-81
2022/01/15 01:40:43;;;;;;;1.13;0.30;;;5.60;99.90;;;;;;6246973;22;20020;-81
2022/01/15 01:43:41;;;;;;;7.53;0.50;;;5.50;99.90;;;;;;6245185;22;20526;-81
2022/01/15 01:48:47;;;;;;;12.13;0.82;;;5.50;99.90;;;;;;6245203;23;20060;-81
2022/01/15 01:51:30;;;;;;;3.65;0.30;;;5.50;99.90;;;;;;6245084;22;20016;-81
2022/01/15 01:54:00;;;;;;;6.35;0.40;;;5.40;99.90;;;;;;6245170;22;20046;-81
2022/01/15 01:56:26;;;;;;;12.23;0.45;;;5.40;99.90;;;;;;6245148;22;20066;-81
2022/01/15 01:58:52;;;;;;;6.57;0.32;;;5.40;99.90;;;;;;6244953;22;20024;-81
2022/01/15 02:01:18;;;;;;;6.10;0.47;;;5.40;99.90;;;;;;6246545;22;20448;-81
2022/01/15 02:03:44;;;;;;;4.82;0.28;;;5.40;99.90;;;;;;6245007;22;20025;-81
2022/01/15 02:06:09;;;;;;;9.13;0.40;;;5.40;99.90;;;;;;6245033;22;20020;-81
2022/01/15 02:08:37;;;;;;;1.08;0.10;;;5.40;99.90;;;;;;6245031;22;20439;-81
2022/01/15 02:11:04;;;;;;;0.22;0.00;;;5.40;99.90;;;;;;6245029;22;20020;-80
2022/01/15 02:13:30;;;;;;;4.45;0.30;;;5.40;99.90;;;;;;6246517;22;20020;-82
2022/01/15 02:15:58;;;;;;;7.95;0.30;;;5.30;99.90;;;;;;6246483;22;20317;-82
2022/01/15 02:18:25;;;;;;;0.10;0.10;;;5.30;99.90;;;;;;6244842;22;20024;-80
2022/01/15 02:23:44;;;;;;;2.47;0.10;;;5.30;99.90;;;;;;6246849;22;20020;-79
2022/01/15 02:26:24;;;;;;;12.95;0.70;;;5.30;99.90;;;;;;6246532;22;20069;-79
2022/01/15 02:28:58;;;;;;;1.30;0.30;;;5.30;99.90;;;;;;6244897;22;20055;-80
2022/01/15 02:31:25;;;;;;;0.50;0.50;;;5.30;99.90;;;;;;6246348;22;20049;-81
2022/01/15 02:33:54;;;;;;;2.40;0.50;;;5.20;99.90;;;;;;6246382;22;20031;-81
2022/01/15 02:36:31;;;;;;;6.03;0.50;;;5.20;99.90;;;;;;6246423;22;20062;-81
2022/01/15 02:38:58;;;;;;;1.63;0.20;;;5.20;99.90;;;;;;6246868;22;20027;-82
2022/01/15 02:41:32;;;;;;;4.32;0.28;;;5.20;99.90;;;;;;6244765;22;20012;-81
2022/01/15 02:43:59;;;;;;;4.07;0.30;;;5.20;99.90;;;;;;6244856;22;20027;-81
2022/01/15 02:49:00;;;;;;;0.52;0.10;;;5.20;99.90;;;;;;6244838;23;20039;-81
2022/01/15 02:51:29;;;;;;;2.00;0.40;;;5.20;99.90;;;;;;6244816;22;20075;-81
2022/01/15 02:53:56;;;;;;;2.40;0.30;;;5.20;99.90;;;;;;6244721;22;20020;-81
2022/01/15 02:56:31;;;;;;;2.55;0.10;;;5.20;99.90;;;;;;6244821;22;20012;-81
2022/01/15 02:58:57;;;;;;;3.60;0.20;;;5.20;99.90;;;;;;6244607;23;20480;-81
2022/01/15 03:01:23;;;;;;;0.40;0.20;;;5.20;99.90;;;;;;6246617;22;20027;-81
2022/01/15 03:03:49;;;;;;;0.15;0.05;;;5.20;99.90;;;;;;6245027;22;20339;-81
2022/01/15 03:06:17;;;;;;;0.52;0.10;;;5.20;99.90;;;;;;6248634;22;20440;-81
2022/01/15 03:08:44;;;;;;;2.75;0.10;;;5.20;99.90;;;;;;6248774;22;20059;-81
2022/01/15 03:11:11;;;;;;;5.22;0.10;;;5.20;99.90;;;;;;6246669;22;20518;-80
2022/01/15 03:13:37;;;;;;;1.42;0.05;;;5.20;99.90;;;;;;6248556;22;20019;-81
2022/01/15 03:16:05;;;;;;;1.95;0.10;;;5.20;99.90;;;;;;6246638;22;20016;-81
2022/01/15 03:18:31;;;;;;;2.38;0.10;;;5.20;99.90;;;;;;6246905;22;20110;-81
2022/01/15 03:20:56;;;;;;;1.17;0.10;;;5.20;99.90;;;;;;6246578;22;20016;-81
2022/01/15 03:23:22;;;;;;;0.88;0.08;;;5.20;99.90;;;;;;6246638;22;20352;-81
2022/01/15 03:25:48;;;;;;;1.85;0.10;;;5.20;99.90;;;;;;6246566;22;20024;-81
2022/01/15 03:28:13;;;;;;;1.95;0.30;;;5.20;99.90;;;;;;6246495;22;20020;-81
2022/01/15 03:30:39;;;;;;;2.83;0.22;;;5.20;99.90;;;;;;6246534;22;20432;-81
2022/01/15 03:33:06;;;;;;;2.67;0.35;;;5.20;99.90;;;;;;6246528;22;20028;-81
2022/01/15 03:35:33;;;;;;;1.90;0.35;;;5.20;99.90;;;;;;6246392;22;20470;-81
2022/01/15 03:37:58;;;;;;;2.75;0.30;;;5.20;99.90;;;;;;6246324;22;20452;-81
2022/01/15 03:40:24;;;;;;;5.38;0.50;;;5.20;99.90;;;;;;6246396;23;20056;-81
2022/01/15 03:42:50;;;;;;;3.25;0.47;;;5.20;99.90;;;;;;6246407;22;20021;-81
2022/01/15 03:45:16;;;;;;;6.75;0.50;;;5.20;99.90;;;;;;6246386;22;20048;-81
2022/01/15 03:47:43;;;;;;;7.97;0.30;;;5.20;99.90;;;;;;6246377;22;20023;-81
2022/01/15 03:50:10;;;;;;;0.68;0.17;;;5.20;99.90;;;;;;6246342;23;20016;-81
2022/01/15 03:52:35;;;;;;;5.55;0.25;;;5.20;99.90;;;;;;6248184;22;20054;-82
2022/01/15 03:55:03;;;;;;;4.03;0.10;;;5.20;99.90;;;;;;6246313;22;20020;-81
2022/01/15 03:57:28;;;;;;;3.70;0.30;;;5.20;99.90;;;;;;6246007;22;20046;-81
2022/01/15 03:59:54;;;;;;;4.43;0.20;;;5.10;99.90;;;;;;6248041;22;20012;-81
2022/01/15 04:02:20;;;;;;;0.57;0.10;;;5.20;99.90;;;;;;6248122;22;20047;-80
2022/01/15 04:04:45;;;;;;;1.00;0.20;;;5.20;99.90;;;;;;6247712;22;20024;-81
2022/01/15 04:07:11;;;;;;;6.13;0.43;;;5.20;99.90;;;;;;6246224;22;20016;-81
2022/01/15 04:09:37;;;;;;;2.08;0.10;;;5.20;99.90;;;;;;6246130;23;20020;-81
2022/01/15 04:12:03;;;;;;;1.08;0.20;;;5.20;99.90;;;;;;6246151;22;20451;-80
2022/01/15 04:14:28;;;;;;;3.30;0.77;;;5.20;99.90;;;;;;6246094;22;20024;-79
2022/01/15 04:16:54;;;;;;;0.93;0.22;;;5.20;99.90;;;;;;6247838;22;20012;-79
2022/01/15 04:19:20;;;;;;;1.85;0.20;;;5.20;99.90;;;;;;6247614;22;20020;-79
2022/01/15 04:21:46;;;;;;;3.42;0.10;;;5.20;99.90;;;;;;6246016;22;20024;-79
2022/01/15 04:24:12;;;;;;;0.65;0.10;;;5.20;99.90;;;;;;6247844;22;20478;-79
2022/01/15 04:26:37;;;;;;;1.02;0.20;;;5.20;99.90;;;;;;6247877;22;20088;-79
2022/01/15 04:29:05;;;;;;;2.65;0.20;;;5.20;99.90;;;;;;6247840;22;20090;-79
2022/01/15 04:31:47;;;;;;;6.25;0.73;;;5.20;99.90;;;;;;6247428;22;20440;-79
2022/01/15 04:34:22;;;;;;;1.67;0.47;;;5.20;99.90;;;;;;6248054;22;20459;-79
2022/01/15 04:36:52;;;;;;;3.55;0.75;;;5.20;99.90;;;;;;6247939;22;20088;-79
2022/01/15 04:39:17;;;;;;;1.75;0.20;;;5.20;99.90;;;;;;6247720;22;20070;-79
2022/01/15 04:41:43;;;;;;;1.48;0.40;;;5.20;99.90;;;;;;6245806;23;20024;-79
2022/01/15 04:44:09;;;;;;;2.17;0.30;;;5.20;99.90;;;;;;6247692;22;20494;-79
2022/01/15 04:46:36;;;;;;;3.03;0.30;;;5.20;99.90;;;;;;6247335;22;20012;-79
2022/01/15 04:49:03;;;;;;;3.53;0.60;;;5.20;99.90;;;;;;6247347;22;20028;-79
2022/01/15 04:51:29;;;;;;;5.15;0.60;;;5.20;99.90;;;;;;6245737;23;20091;-79
2022/01/15 04:53:55;;;;;;;4.50;0.68;;;5.20;99.90;;;;;;6247448;22;20455;-79
2022/01/15 04:56:21;;;;;;;5.13;0.45;;;5.20;99.90;;;;;;6247219;22;20432;-79
2022/01/15 04:58:47;;;;;;;5.80;0.70;;;5.20;99.90;;;;;;6245336;22;20016;-79
2022/01/15 05:01:12;;;;;;;5.80;0.47;;;5.20;99.90;;;;;;6247145;22;20071;-79
2022/01/15 05:03:38;;;;;;;2.85;0.60;;;5.20;99.90;;;;;;6245621;22;20099;-79
2022/01/15 05:06:04;;;;;;;4.07;0.50;;;5.20;99.90;;;;;;6245525;22;20096;-78
2022/01/15 05:08:29;;;;;;;1.88;0.30;;;5.20;99.90;;;;;;6245587;22;20063;-79
2022/01/15 05:10:59;;;;;;;5.97;0.73;;;5.20;99.90;;;;;;6245533;22;20038;-79
2022/01/15 05:13:28;;;;;;;2.40;0.70;;;5.20;99.90;;;;;;6247363;22;20012;-79
2022/01/15 05:15:54;;;;;;;2.25;0.40;;;5.20;99.90;;;;;;6245521;22;20023;-79
2022/01/15 05:18:20;;;;;;;2.60;0.65;;;5.20;99.90;;;;;;6247221;22;20016;-79
2022/01/15 05:20:46;;;;;;;3.67;0.63;;;5.20;99.90;;;;;;6245451;22;20356;-79
2022/01/15 05:23:12;;;;;;;2.78;0.73;;;5.20;99.90;;;;;;6245440;22;20019;-78
2022/01/15 05:25:39;;;;;;;8.68;1.17;;;5.20;99.90;;;;;;6245372;22;20017;-79
2022/01/15 05:28:04;;;;;;;2.47;0.93;;;5.20;99.90;;;;;;6245144;22;20059;-79
2022/01/15 05:30:31;;;;;;;4.88;1.00;;;5.20;99.90;;;;;;6247254;22;20008;-79
2022/01/15 05:32:58;;;;;;;3.35;0.47;;;5.20;99.90;;;;;;6247275;22;20012;-79
2022/01/15 05:35:28;;;;;;;8.27;1.45;;;5.20;99.90;;;;;;6245299;22;20447;-79
2022/01/15 05:37:55;;;;;;;3.70;0.60;;;5.20;99.90;;;;;;6245500;22;20440;-79
2022/01/15 05:40:21;;;;;;;3.85;0.88;;;5.20;99.90;;;;;;6247164;22;20012;-78
2022/01/15 05:42:46;;;;;;;4.03;0.60;;;5.20;99.90;;;;;;6245237;22;20024;-79
2022/01/15 05:45:13;;;;;;;2.97;0.77;;;5.20;99.90;;;;;;6245236;22;20024;-79
2022/01/15 05:47:39;;;;;;;4.70;0.73;;;5.20;99.90;;;;;;6245230;22;20016;-79
2022/01/15 05:50:05;;;;;;;6.28;1.40;;;5.20;99.90;;;;;;6245109;22;20078;-79
2022/01/15 05:52:31;;;;;;;4.30;0.90;;;5.20;99.90;;;;;;6245244;22;20066;-79
2022/01/15 05:54:56;;;;;;;4.28;0.90;;;5.30;99.90;;;;;;6245181;22;20399;-79
2022/01/15 05:57:22;;;;;;;3.13;0.80;;;5.30;99.90;;;;;;6244833;22;20471;-79
2022/01/15 05:59:51;;;;;;;3.90;0.70;;;5.20;99.90;;;;;;6246966;22;20020;-79
2022/01/15 06:02:18;;;;;;;12.52;1.67;;;5.30;99.90;;;;;;6245103;22;20031;-79
2022/01/15 06:04:43;;;;;;;3.22;0.98;;;5.20;99.90;;;;;;6246918;22;20051;-79
2022/01/15 06:07:09;;;;;;;3.20;0.93;;;5.30;99.90;;;;;;6246764;22;20024;-79
2022/01/15 06:09:35;;;;;;;4.82;1.17;;;5.30;99.90;;;;;;6244990;22;20024;-78
2022/01/15 06:12:01;;;;;;;4.75;1.25;;;5.30;99.90;;;;;;6246915;22;20020;-79
2022/01/15 06:14:27;;;;;;;5.03;1.30;;;5.20;99.90;;;;;;6246535;22;20432;-79
2022/01/15 06:16:54;;;;;;;3.08;1.13;;;5.20;99.90;;;;;;6246489;22;20024;-79
2022/01/15 06:19:19;;;;;;;2.50;0.90;;;5.30;99.90;;;;;;6244970;23;20019;-79
2022/01/15 06:21:45;;;;;;;2.70;0.93;;;5.20;99.90;;;;;;6244944;22;20028;-79
2022/01/15 06:24:11;;;;;;;4.00;1.15;;;5.20;99.90;;;;;;6244924;23;20012;-79
2022/01/15 06:26:36;;;;;;;2.78;1.10;;;5.20;99.90;;;;;;6246429;22;20088;-79
2022/01/15 06:29:02;;;;;;;3.08;1.33;;;5.20;99.90;;;;;;6246727;22;20016;-79
2022/01/15 06:31:30;;;;;;;4.18;1.10;;;5.20;99.90;;;;;;6244887;22;20023;-79
2022/01/15 06:33:57;;;;;;;5.70;1.70;;;5.20;99.90;;;;;;6244854;22;20058;-79
2022/01/15 06:36:22;;;;;;;6.55;1.70;;;5.10;99.90;;;;;;6246532;22;20028;-79
2022/01/15 06:38:48;;;;;;;5.45;1.63;;;5.20;99.90;;;;;;6245100;22;20024;-79
2022/01/15 06:41:14;;;;;;;3.45;1.30;;;5.20;99.90;;;;;;6246959;23;20023;-79
2022/01/15 06:43:40;;;;;;;6.07;1.98;;;5.20;99.90;;;;;;6248826;22;20016;-79
2022/01/15 06:46:05;;;;;;;7.43;2.10;;;5.20;99.90;;;;;;6248767;22;20024;-79
2022/01/15 06:48:31;;;;;;;6.25;2.13;;;5.10;99.90;;;;;;6246877;22;20083;-79
2022/01/15 06:50:57;;;;;;;4.53;1.60;;;5.20;99.90;;;;;;6248752;22;20050;-79
2022/01/15 06:53:23;;;;;;;6.95;1.83;;;5.10;99.90;;;;;;6248327;22;20046;-79
2022/01/15 06:55:51;;;;;;;4.30;1.55;;;5.10;99.90;;;;;;6248391;22;20024;-79
2022/01/15 06:58:17;;;;;;;4.70;1.55;;;5.10;99.90;;;;;;6246505;22;20020;-79
2022/01/15 07:00:43;;;;;;;5.13;1.67;;;5.10;99.90;;;;;;6248382;22;20031;-79
2022/01/15 07:03:08;;;;;;;4.22;1.80;;;5.10;99.90;;;;;;6246806;22;20023;-79
2022/01/15 07:05:34;;;;;;;5.90;1.85;;;5.10;99.90;;;;;;6246707;22;20020;-79
2022/01/15 07:08:00;;;;;;;6.97;1.83;;;5.10;99.90;;;;;;6246701;22;20019;-79
2022/01/15 07:10:25;;;;;;;5.40;2.08;;;5.10;99.90;;;;;;6246701;22;20016;-78
2022/01/15 07:12:52;;;;;;;7.53;1.65;;;5.10;99.90;;;;;;6246705;22;20066;-79
2022/01/15 07:15:18;;;;;;;4.70;1.75;;;5.10;99.90;;;;;;6246672;22;20048;-79
2022/01/15 07:17:45;;;;;;;5.05;2.08;;;5.10;99.90;;;;;;6248301;22;20027;-79
2022/01/15 07:20:12;;;;;;;5.95;1.63;;;5.10;99.90;;;;;;6246631;22;20467;-79
2022/01/15 07:22:39;;;;;;;6.93;1.63;;;5.00;99.90;;;;;;6246527;22;20022;-79
2022/01/15 07:25:05;;;;;;;7.20;1.60;;;5.10;99.90;;;;;;6246535;22;20020;-78
2022/01/15 07:27:31;;;;;;;7.43;1.77;;;5.10;99.90;;;;;;6246585;22;20024;-79
2022/01/15 07:29:57;;;;;;;3.85;1.60;;;5.10;99.90;;;;;;6246416;22;20023;-78
2022/01/15 07:32:22;;;;;;;6.03;1.73;;;5.10;99.90;;;;;;6246215;22;20454;-78
2022/01/15 07:34:48;;;;;;;5.03;1.40;;;5.10;99.90;;;;;;6248100;22;20443;-78
2022/01/15 07:37:14;;;;;;;3.78;1.15;;;5.00;99.90;;;;;;6247900;22;20135;-79
2022/01/15 07:39:42;;;;;;;7.05;1.60;;;5.00;99.90;;;;;;6246029;22;20082;-79
2022/01/15 07:42:08;;;;;;;4.38;1.20;;;5.10;99.90;;;;;;6245845;22;20070;-79
2022/01/15 07:44:34;;;;;;;4.38;1.27;;;5.00;99.90;;;;;;6246133;22;20027;-79
2022/01/15 07:47:00;;;;;;;5.18;1.70;;;5.10;99.90;;;;;;6247169;22;20091;-79
2022/01/15 07:49:26;;;;;;;4.22;1.30;;;5.10;99.90;;;;;;6244706;22;20102;-79
2022/01/15 07:51:51;;;;;;;4.07;1.33;;;5.10;99.90;;;;;;6245987;22;20455;-78
2022/01/15 07:54:17;;;;;;;4.82;1.77;;;5.10;99.90;;;;;;6247706;22;20031;-79
2022/01/15 07:56:43;;;;;;;5.13;1.48;;;5.10;99.90;;;;;;6245153;22;20596;-79
2022/01/15 07:59:08;;;;;;;3.78;1.55;;;5.10;99.90;;;;;;6245539;22;20055;-79
2022/01/15 08:01:34;;;;;;;6.82;1.75;;;5.10;99.90;;;;;;6246089;23;20120;-78
2022/01/15 08:04:02;;;;;;;6.53;2.03;;;5.10;99.90;;;;;;6246150;22;20024;-79
2022/01/15 08:06:27;;;;;;;9.27;1.88;;;5.10;99.90;;;;;;6247956;22;20008;-78
2022/01/15 08:08:53;;;;;;;9.43;2.80;;;5.10;99.90;;;;;;6247505;22;20075;-78
2022/01/15 08:11:19;;;;;;;5.78;2.53;;;5.00;99.90;;;;;;6247554;22;20385;-78
2022/01/15 08:13:44;;;;;;;7.28;2.85;;;5.10;99.90;;;;;;6245947;22;20511;-78
2022/01/15 08:16:10;;;;;;;6.97;2.55;;;5.10;99.90;;;;;;6245950;22;20052;-78
2022/01/15 08:18:36;;;;;;;9.93;2.72;;;5.10;99.90;;;;;;6244732;22;20087;-78
2022/01/15 08:21:03;;;;;;;7.55;2.90;;;5.10;99.90;;;;;;6245585;22;20012;-78
2022/01/15 08:23:30;;;;;;;9.07;2.92;;;5.10;99.90;;;;;;6247549;22;20013;-78
2022/01/15 08:25:55;;;;;;;11.27;3.15;;;5.10;99.90;;;;;;6247162;22;20016;-78
2022/01/15 08:28:23;;;;;;;8.90;2.80;;;5.10;99.90;;;;;;6247208;22;20093;-78
2022/01/15 08:30:49;;;;;;;11.63;3.25;;;5.10;99.90;;;;;;6247489;22;20020;-79
2022/01/15 08:33:15;;;;;;;11.48;3.30;;;5.10;99.90;;;;;;6245581;22;20023;-78
2022/01/15 08:35:40;;;;;;;8.80;3.58;;;5.10;99.90;;;;;;6245435;22;20020;-78
2022/01/15 08:38:06;;;;;;;8.82;3.15;;;5.10;99.90;;;;;;6245445;22;20020;-77
2022/01/15 08:40:33;;;;;;;8.50;3.03;;;5.10;99.90;;;;;;6246904;22;20016;-77
2022/01/15 08:42:59;;;;;;;9.00;2.97;;;5.10;99.90;;;;;;6247056;22;20020;-78
2022/01/15 08:45:26;;;;;;;10.10;3.45;;;5.10;99.90;;;;;;6245439;23;20436;-77
2022/01/15 08:47:53;;;;;;;9.75;3.30;;;5.10;99.90;;;;;;6245313;22;20030;-78
2022/01/15 08:50:19;;;;;;;8.68;2.60;;;5.10;99.90;;;;;;6245403;22;20087;-77
2022/01/15 08:52:45;;;;;;;9.05;3.17;;;5.10;99.90;;;;;;6247111;22;20046;-78
2022/01/15 08:55:11;;;;;;;6.80;2.60;;;5.10;99.90;;;;;;6245369;22;20023;-78
2022/01/15 08:57:37;;;;;;;11.02;3.30;;;5.10;99.90;;;;;;6245067;22;20031;-77
2022/01/15 09:00:10;;;;;;;6.72;2.78;;;5.10;99.90;;;;;;6245195;23;20024;-78
2022/01/15 09:02:36;;;;;;;8.82;3.00;;;5.10;99.90;;;;;;6245109;22;20090;-77
2022/01/15 09:05:03;;;;;;;6.75;2.30;;;5.00;99.90;;;;;;6245272;22;20023;-77
2022/01/15 09:07:28;;;;;;;6.25;2.03;;;5.10;99.90;;;;;;6245285;22;20087;-78
2022/01/15 09:09:54;;;;;;;8.43;2.22;;;5.10;99.90;;;;;;6247062;22;20085;-78
2022/01/15 09:12:22;;;;;;;6.35;2.35;;;5.10;99.90;;;;;;6245099;22;20035;-77
2022/01/15 09:14:49;;;;;;;8.82;3.00;;;5.10;99.90;;;;;;6245171;22;20043;-79
2022/01/15 09:17:15;;;;;;;10.40;3.08;;;5.10;99.90;;;;;;6246439;22;20024;-77
2022/01/15 09:19:41;;;;;;;6.68;2.38;;;5.20;99.90;;;;;;6245964;22;20028;-79
2022/01/15 09:22:11;;;;;;;7.43;2.53;;;5.10;99.90;;;;;;6244649;23;20462;-77
2022/01/15 09:24:37;;;;;;;7.47;3.03;;;5.10;99.90;;;;;;6246724;22;20051;-78
2022/01/15 09:30:12;;;;;;;8.75;2.80;;;5.10;99.90;;;;;;6246392;22;20008;-77
2022/01/15 09:32:32;;;;;;;8.13;2.67;;;5.20;99.90;;;;;;6246618;22;20054;-78
2022/01/15 09:34:58;;;;;;;9.15;2.75;;;5.10;99.90;;;;;;6246504;22;20048;-77
2022/01/15 09:37:24;;;;;;;9.00;2.83;;;5.20;99.90;;;;;;6244495;22;20336;-77
2022/01/15 09:39:50;;;;;;;9.25;3.67;;;5.20;99.90;;;;;;6244891;22;20023;-77
2022/01/15 09:42:16;;;;;;;10.27;2.85;;;5.20;99.90;;;;;;6245929;22;20016;-77
2022/01/15 09:44:42;;;;;;;10.27;4.57;;;5.20;99.90;;;;;;6246727;22;20058;-77
2022/01/15 09:47:11;;;;;;;10.18;4.40;;;5.20;99.90;;;;;;6246478;22;20091;-77
2022/01/15 09:49:38;;;;;;;10.95;3.83;;;5.10;99.90;;;;;;6246122;22;20024;-78
2022/01/15 09:52:04;;;;;;;10.18;4.07;;;5.20;99.90;;;;;;6246472;22;20016;-76
2022/01/15 09:54:30;;;;;;;12.95;4.63;;;5.20;99.90;;;;;;6246060;22;20375;-78
2022/01/15 09:56:56;;;;;;;13.75;4.70;;;5.20;99.90;;;;;;6246472;22;20343;-77
2022/01/15 09:59:22;;;;;;;13.45;4.47;;;5.20;99.90;;;;;;6277127;22;20439;-77
2022/01/15 10:01:47;;;;;;;18.42;5.30;;;5.20;99.90;;;;;;6249531;22;20020;-78
2022/01/15 10:04:13;;;;;;;13.30;5.38;;;5.20;99.90;;;;;;6249765;22;20020;-77
2022/01/15 10:07:04;;;;;;;12.52;5.40;;;5.20;99.90;;;;;;6276416;22;20023;-77
2022/01/15 10:09:30;;;;;;;11.88;4.93;;;5.20;99.90;;;;;;6249440;22;20054;-77
2022/01/15 10:11:56;;;;;;;12.70;4.93;;;5.20;99.90;;;;;;6249569;22;20019;-77
2022/01/15 10:14:27;;;;;;;17.98;5.97;;;5.30;99.90;;;;;;6249360;22;20034;-77
2022/01/15 10:16:55;;;;;;;15.48;5.32;;;5.30;99.90;;;;;;6249378;22;20053;-77
2022/01/15 10:19:29;;;;;;;15.63;5.70;;;5.30;99.90;;;;;;6249415;22;20316;-78
2022/01/15 10:22:08;;;;;;;17.50;6.60;;;5.30;99.90;;;;;;6249256;22;20065;-78
2022/01/15 10:24:34;;;;;;;13.77;4.82;;;5.30;99.90;;;;;;6249593;22;20020;-78
2022/01/15 10:27:19;;;;;;;12.98;4.95;;;5.20;99.90;;;;;;6249276;22;20024;-78
2022/01/15 10:30:10;;;;;;;11.57;4.75;;;5.20;99.90;;;;;;6249552;22;20051;-78
2022/01/15 10:32:52;;;;;;;11.25;4.00;;;5.10;99.90;;;;;;6234932;22;20026;-78
2022/01/15 10:35:19;;;;;;;12.98;5.13;;;5.20;99.90;;;;;;6249860;22;20024;-79
2022/01/15 10:37:54;;;;;;;10.57;4.10;;;5.20;99.90;;;;;;6249454;22;20019;-78
2022/01/15 10:40:23;;;;;;;11.95;4.70;;;5.20;99.90;;;;;;6276571;22;20104;-78
2022/01/15 10:42:58;;;;;;;11.20;5.10;;;5.10;99.90;;;;;;6277013;22;20011;-78
2022/01/15 10:45:26;;;;;;;15.55;4.68;;;5.10;99.90;;;;;;6276575;22;20351;-80
2022/01/15 10:47:55;;;;;;;12.43;5.15;;;5.10;99.90;;;;;;6276461;22;20339;-81
2022/01/15 10:50:33;;;;;;;12.75;4.60;;;5.20;99.90;;;;;;6276530;22;20019;-80
2022/01/15 10:53:09;;;;;;;14.05;4.45;;;5.10;99.90;;;;;;6249292;22;20431;-78
2022/01/15 10:55:36;;;;;;;14.73;5.78;;;5.10;99.90;;;;;;6276821;22;20015;-78
2022/01/15 10:58:05;;;;;;;13.55;4.93;;;5.20;99.90;;;;;;6248927;22;20027;-79
2022/01/15 11:00:40;;;;;;;12.30;4.80;;;5.20;99.90;;;;;;6249689;22;20023;-78
2022/01/15 11:03:08;;;;;;;11.38;4.90;;;5.20;99.90;;;;;;6276819;22;20023;-78
2022/01/15 11:05:39;;;;;;;14.57;5.45;;;5.20;99.90;;;;;;6249270;22;20027;-78
2022/01/15 11:08:20;;;;;;;13.27;4.95;;;5.20;99.90;;;;;;6276183;22;20030;-78
2022/01/15 11:10:54;;;;;;;13.45;4.93;;;5.20;99.90;;;;;;6249339;22;20016;-78
2022/01/15 11:13:28;;;;;;;19.58;5.78;;;5.20;99.90;;;;;;6249469;22;20462;-78
2022/01/15 11:15:57;;;;;;;14.43;5.65;;;5.20;99.90;;;;;;6249239;22;20051;-78
2022/01/15 11:18:26;;;;;;;14.77;5.50;;;5.20;99.90;;;;;;6249191;22;20027;-79
2022/01/15 11:20:54;;;;;;;18.13;5.68;;;5.30;99.90;;;;;;6249249;22;20016;-78
2022/01/15 11:23:21;;;;;;;13.95;5.40;;;5.30;99.90;;;;;;6249371;22;20142;-78
2022/01/15 11:25:49;;;;;;;16.42;6.68;;;5.30;99.90;;;;;;6277726;22;20019;-78
2022/01/15 11:28:17;;;;;;;16.98;6.53;;;5.30;99.90;;;;;;6278536;22;20015;-78
2022/01/15 11:30:45;;;;;;;16.70;6.70;;;5.30;99.90;;;;;;6251342;22;20020;-78
2022/01/15 11:33:12;;;;;;;19.13;6.75;;;5.30;99.90;;;;;;6278538;22;20069;-78
2022/01/15 11:35:45;;;;;;;20.83;7.93;;;5.20;99.90;;;;;;6251207;22;20088;-77
2022/01/15 11:38:32;;;;;;;19.00;8.02;;;5.30;99.90;;;;;;6278313;22;20081;-78
2022/01/15 11:40:57;;;;;;;12.75;5.60;;;5.30;99.90;;;;;;6229541;22;20086;-78
2022/01/15 11:43:24;;;;;;;19.35;6.20;;;5.30;99.90;;;;;;6251205;22;20057;-77
2022/01/15 11:45:58;;;;;;;17.75;6.57;;;5.30;99.90;;;;;;6278539;22;20024;-78
2022/01/15 11:48:29;;;;;;;15.05;5.93;;;5.20;99.90;;;;;;6251754;22;20074;-78
2022/01/15 11:51:13;;;;;;;17.70;6.78;;;5.20;99.90;;;;;;6251106;22;20012;-78
2022/01/15 11:53:49;;;;;;;19.52;9.20;;;5.10;99.90;;;;;;6278060;22;20030;-78
2022/01/15 11:56:21;;;;;;;15.18;6.57;;;5.10;99.90;;;;;;6278368;22;20057;-78
2022/01/15 11:58:47;;;;;;;17.50;7.03;;;5.10;99.90;;;;;;6250672;22;20050;-78
2022/01/15 12:01:37;;;;;;;19.27;7.25;;;5.10;99.90;;;;;;6250518;22;20019;-78
2022/01/15 12:04:32;;;;;;;21.45;8.05;;;5.10;99.90;;;;;;6251234;22;20132;-78
2022/01/15 12:07:01;;;;;;;20.55;7.80;;;5.10;99.90;;;;;;6250756;22;20055;-78
2022/01/15 12:09:43;;;;;;;19.75;8.27;;;5.10;99.90;;;;;;6250865;22;20043;-78
2022/01/15 12:12:18;;;;;;;22.83;8.38;;;5.20;99.90;;;;;;6250719;22;20338;-78
2022/01/15 12:14:56;;;;;;;24.85;9.38;;;5.20;99.90;;;;;;6250804;22;20092;-77
2022/01/15 12:17:25;;;;;;;21.70;8.05;;;5.10;99.90;;;;;;6250617;22;20023;-78
2022/01/15 12:19:52;;;;;;;20.08;8.88;;;5.10;99.90;;;;;;6251117;22;20027;-78
2022/01/15 12:22:44;;;;;;;25.75;9.02;;;5.10;99.90;;;;;;6250270;22;20023;-78
2022/01/15 12:25:16;;;;;;;28.95;9.90;;;5.10;99.90;;;;;;6250592;22;20024;-78
2022/01/15 12:27:43;;;;;;;29.73;8.85;;;5.10;99.90;;;;;;6250836;22;20500;-77
2022/01/15 12:30:20;;;;;;;35.90;10.15;;;5.10;99.90;;;;;;6250618;22;20077;-78
2022/01/15 12:32:51;;;;;;;30.00;10.43;;;5.10;99.90;;;;;;6277720;22;20027;-78
2022/01/15 12:35:22;;;;;;;28.17;11.23;;;5.10;99.90;;;;;;6277746;22;20115;-78
2022/01/15 12:38:07;;;;;;;25.02;9.68;;;5.10;99.90;;;;;;6249878;22;20077;-78
2022/01/15 12:40:44;;;;;;;30.40;8.95;;;5.00;99.90;;;;;;6250578;22;20050;-78
2022/01/15 12:43:28;;;;;;;29.42;9.27;;;5.00;99.90;;;;;;6250293;22;20382;-78
2022/01/15 12:46:02;;;;;;;31.38;9.70;;;5.00;99.90;;;;;;6250432;22;20027;-77
2022/01/15 12:48:33;;;;;;;26.80;9.60;;;4.90;99.90;;;;;;6250935;22;20019;-78
2022/01/15 12:51:04;;;;;;;40.08;10.25;;;4.90;99.90;;;;;;6277982;22;20051;-78
2022/01/15 12:53:35;;;;;;;29.63;8.13;;;4.90;99.90;;;;;;6277435;22;20024;-77
2022/01/15 12:56:05;;;;;;;28.67;9.57;;;4.90;99.90;;;;;;6277449;22;20070;-77
2022/01/15 12:58:31;;;;;;;58.45;10.68;;;4.80;99.90;;;;;;6250090;22;20343;-77
2022/01/15 13:00:57;;;;;;;54.95;13.82;;;4.80;99.90;;;;;;6250109;22;20094;-78
2022/01/15 13:03:24;;;;;;;58.67;11.68;;;4.80;99.90;;;;;;6250247;22;20083;-78
2022/01/15 13:05:56;;;;;;;41.33;10.35;;;4.80;99.90;;;;;;6250310;22;20374;-77
2022/01/15 13:08:33;;;;;;;52.40;11.27;;;4.80;99.90;;;;;;6249819;22;20024;-77
2022/01/15 13:11:04;;;;;;;39.70;10.27;;;4.80;99.90;;;;;;6277394;22;20020;-77
2022/01/15 13:13:33;;;;;;;50.70;10.52;;;4.80;99.90;;;;;;6277563;22;20016;-77
2022/01/15 13:16:06;;;;;;;50.90;12.75;;;4.80;99.90;;;;;;6250249;22;20094;-77
2022/01/15 13:18:49;;;;;;;38.50;12.65;;;4.80;99.90;;;;;;6250254;22;20099;-77
2022/01/15 13:21:20;;;;;;;46.80;11.45;;;4.80;99.90;;;;;;6277601;22;20034;-77